Terminal Aerodrome Forecast
Issued by NWS

Home | Current Version | Previous Version | Graphics & Text | Print | Product List | Glossary On
Versions: 1 2 3 4 5 6 7 8 9 10 11 12 13 14 15 16
000
FTUS45 KGGW 272300
TAFSDY
TAF
KSDY 272324Z 2800/2824 02016G23KT P6SM SCT150
     FM280200 01013G20KT P6SM VCSH BKN080
     FM280900 02016G22KT P6SM -SHRA OVC050
     FM281300 04010G15KT P6SM -RA OVC050
      AMD LTD TO CLD VIS AND WIND=

USA.gov is the U.S. government's official web portal to all federal, state and local government web resources and services.